sensor_id;sensor_type;location;lat;lon;timestamp;pressure;altitude;pressure_sealevel;temperature;humidity
57827;BME280;43656;57.746;11.780;2023-06-10T00:00:49;102334.56;;;18.26;33.63
57827;BME280;43656;57.746;11.780;2023-06-10T00:03:16;102345.03;;;18.29;33.54
57827;BME280;43656;57.746;11.780;2023-06-10T00:05:41;102327.66;;;18.17;33.47
57827;BME280;43656;57.746;11.780;2023-06-10T00:08:07;102346.97;;;18.15;33.64
57827;BME280;43656;57.746;11.780;2023-06-10T00:10:37;102350.28;;;18.17;33.59
57827;BME280;43656;57.746;11.780;2023-06-10T00:13:07;102359.75;;;18.21;33.68
57827;BME280;43656;57.746;11.780;2023-06-10T00:15:37;102346.56;;;17.92;33.83
57827;BME280;43656;57.746;11.780;2023-06-10T00:18:03;102358.72;;;17.96;34.10
57827;BME280;43656;57.746;11.780;2023-06-10T00:20:30;102353.69;;;17.93;34.05
57827;BME280;43656;57.746;11.780;2023-06-10T00:22:56;102367.31;;;17.99;33.99
57827;BME280;43656;57.746;11.780;2023-06-10T00:25:22;102352.84;;;17.86;33.89
57827;BME280;43656;57.746;11.780;2023-06-10T00:27:47;102375.47;;;17.86;33.88
57827;BME280;43656;57.746;11.780;2023-06-10T00:30:13;102368.78;;;17.82;33.91
57827;BME280;43656;57.746;11.780;2023-06-10T00:32:39;102362.00;;;17.71;33.56
57827;BME280;43656;57.746;11.780;2023-06-10T00:35:05;102365.59;;;17.72;33.72
57827;BME280;43656;57.746;11.780;2023-06-10T00:37:32;102369.56;;;17.69;33.49
57827;BME280;43656;57.746;11.780;2023-06-10T00:39:57;102378.78;;;17.68;33.37
57827;BME280;43656;57.746;11.780;2023-06-10T00:42:23;102355.09;;;17.49;33.15
57827;BME280;43656;57.746;11.780;2023-06-10T00:44:54;102315.28;;;17.21;32.77
57827;BME280;43656;57.746;11.780;2023-06-10T00:47:20;102359.50;;;17.50;32.85
57827;BME280;43656;57.746;11.780;2023-06-10T00:49:46;102386.94;;;17.55;32.92
57827;BME280;43656;57.746;11.780;2023-06-10T00:52:13;102387.56;;;17.57;33.08
57827;BME280;43656;57.746;11.780;2023-06-10T00:54:39;102394.22;;;17.48;33.00
57827;BME280;43656;57.746;11.780;2023-06-10T00:57:05;102396.13;;;17.47;32.76
57827;BME280;43656;57.746;11.780;2023-06-10T00:59:31;102409.13;;;17.45;32.83
57827;BME280;43656;57.746;11.780;2023-06-10T01:01:57;102399.22;;;17.37;32.93
57827;BME280;43656;57.746;11.780;2023-06-10T01:04:24;102384.97;;;17.22;32.77
57827;BME280;43656;57.746;11.780;2023-06-10T01:07:47;102397.50;;;17.17;32.28
57827;BME280;43656;57.746;11.780;2023-06-10T01:09:55;102401.91;;;17.18;32.87
57827;BME280;43656;57.746;11.780;2023-06-10T01:12:34;102395.56;;;17.04;32.73
57827;BME280;43656;57.746;11.780;2023-06-10T01:15:02;102404.38;;;17.06;32.85
57827;BME280;43656;57.746;11.780;2023-06-10T01:17:29;102409.53;;;16.94;32.97
57827;BME280;43656;57.746;11.780;2023-06-10T01:19:58;102412.09;;;16.96;32.51
57827;BME280;43656;57.746;11.780;2023-06-10T01:22:25;102410.78;;;16.91;32.96
57827;BME280;43656;57.746;11.780;2023-06-10T01:24:55;102415.81;;;16.95;32.75
57827;BME280;43656;57.746;11.780;2023-06-10T01:27:26;102416.25;;;16.98;32.97
57827;BME280;43656;57.746;11.780;2023-06-10T01:29:59;102418.34;;;16.96;33.11
57827;BME280;43656;57.746;11.780;2023-06-10T01:32:34;102415.31;;;16.78;33.23
57827;BME280;43656;57.746;11.780;2023-06-10T01:35:02;102418.38;;;16.68;33.18
57827;BME280;43656;57.746;11.780;2023-06-10T01:37:30;102423.22;;;16.73;33.48
57827;BME280;43656;57.746;11.780;2023-06-10T01:39:57;102422.66;;;16.49;33.78
57827;BME280;43656;57.746;11.780;2023-06-10T01:42:24;102418.84;;;16.43;33.73
57827;BME280;43656;57.746;11.780;2023-06-10T01:44:51;102424.38;;;16.57;33.59
57827;BME280;43656;57.746;11.780;2023-06-10T01:47:16;102431.22;;;16.46;33.56
57827;BME280;43656;57.746;11.780;2023-06-10T01:49:43;102434.75;;;16.47;33.87
57827;BME280;43656;57.746;11.780;2023-06-10T01:52:08;102435.50;;;16.34;34.06
57827;BME280;43656;57.746;11.780;2023-06-10T01:54:33;102436.56;;;16.33;34.34
57827;BME280;43656;57.746;11.780;2023-06-10T01:57:02;102444.25;;;16.29;34.08
57827;BME280;43656;57.746;11.780;2023-06-10T01:59:27;102444.66;;;16.26;34.42
57827;BME280;43656;57.746;11.780;2023-06-10T02:01:53;102444.88;;;16.03;34.57
57827;BME280;43656;57.746;11.780;2023-06-10T02:04:18;102433.28;;;15.94;34.73
57827;BME280;43656;57.746;11.780;2023-06-10T02:06:44;102426.31;;;15.85;34.78
57827;BME280;43656;57.746;11.780;2023-06-10T02:09:10;102425.69;;;15.83;34.92
57827;BME280;43656;57.746;11.780;2023-06-10T02:11:36;102442.47;;;15.93;35.32
57827;BME280;43656;57.746;11.780;2023-06-10T02:14:02;102436.34;;;15.85;35.14
57827;BME280;43656;57.746;11.780;2023-06-10T02:16:28;102441.31;;;15.81;35.57
57827;BME280;43656;57.746;11.780;2023-06-10T02:18:53;102436.25;;;15.57;35.58
57827;BME280;43656;57.746;11.780;2023-06-10T02:21:19;102445.38;;;15.34;36.07
57827;BME280;43656;57.746;11.780;2023-06-10T02:23:45;102452.59;;;15.27;36.08
57827;BME280;43656;57.746;11.780;2023-06-10T02:26:10;102444.75;;;15.17;36.33
57827;BME280;43656;57.746;11.780;2023-06-10T02:28:36;102444.66;;;15.11;36.44
57827;BME280;43656;57.746;11.780;2023-06-10T02:31:01;102452.13;;;15.23;36.69
57827;BME280;43656;57.746;11.780;2023-06-10T02:33:27;102445.66;;;15.24;36.73
57827;BME280;43656;57.746;11.780;2023-06-10T02:35:52;102448.09;;;15.19;36.78
57827;BME280;43656;57.746;11.780;2023-06-10T02:38:17;102452.78;;;15.25;36.45
57827;BME280;43656;57.746;11.780;2023-06-10T02:40:43;102456.97;;;15.64;35.79
57827;BME280;43656;57.746;11.780;2023-06-10T02:43:09;102460.38;;;16.09;35.65
57827;BME280;43656;57.746;11.780;2023-06-10T02:45:34;102445.94;;;16.30;35.26
57827;BME280;43656;57.746;11.780;2023-06-10T02:48:00;102463.63;;;16.76;34.70
57827;BME280;43656;57.746;11.780;2023-06-10T02:50:25;102453.09;;;17.01;34.35
57827;BME280;43656;57.746;11.780;2023-06-10T02:52:51;102462.00;;;17.29;34.06
57827;BME280;43656;57.746;11.780;2023-06-10T02:55:16;102458.75;;;17.60;34.02
57827;BME280;43656;57.746;11.780;2023-06-10T02:57:42;102458.84;;;17.87;33.13
57827;BME280;43656;57.746;11.780;2023-06-10T03:00:08;102459.91;;;18.13;33.09
57827;BME280;43656;57.746;11.780;2023-06-10T03:02:39;102461.81;;;18.25;32.79
57827;BME280;43656;57.746;11.780;2023-06-10T03:05:06;102456.53;;;18.57;32.59
57827;BME280;43656;57.746;11.780;2023-06-10T03:07:36;102459.22;;;18.84;32.30
57827;BME280;43656;57.746;11.780;2023-06-10T03:10:02;102462.94;;;19.09;32.03
57827;BME280;43656;57.746;11.780;2023-06-10T03:12:27;102461.94;;;19.42;31.77
57827;BME280;43656;57.746;11.780;2023-06-10T03:14:53;102463.47;;;19.76;31.58
57827;BME280;43656;57.746;11.780;2023-06-10T03:17:18;102464.53;;;20.07;31.10
57827;BME280;43656;57.746;11.780;2023-06-10T03:19:44;102464.84;;;20.17;30.99
57827;BME280;43656;57.746;11.780;2023-06-10T03:22:14;102464.63;;;20.44;30.57
57827;BME280;43656;57.746;11.780;2023-06-10T03:24:40;102473.88;;;20.42;30.40
57827;BME280;43656;57.746;11.780;2023-06-10T03:27:12;102466.34;;;20.38;30.07
57827;BME280;43656;57.746;11.780;2023-06-10T03:29:38;102470.16;;;20.37;29.83
57827;BME280;43656;57.746;11.780;2023-06-10T03:32:04;102459.06;;;20.07;30.74
57827;BME280;43656;57.746;11.780;2023-06-10T03:34:30;102464.97;;;20.04;30.49
57827;BME280;43656;57.746;11.780;2023-06-10T03:36:56;102477.59;;;19.66;30.73
57827;BME280;43656;57.746;11.780;2023-06-10T03:39:22;102463.38;;;19.51;31.11
57827;BME280;43656;57.746;11.780;2023-06-10T03:41:49;102461.63;;;19.18;31.37
57827;BME280;43656;57.746;11.780;2023-06-10T03:44:14;102474.00;;;19.28;31.54
57827;BME280;43656;57.746;11.780;2023-06-10T03:46:40;102448.25;;;19.48;31.08
57827;BME280;43656;57.746;11.780;2023-06-10T03:49:06;102475.75;;;19.92;30.75
57827;BME280;43656;57.746;11.780;2023-06-10T03:51:31;102462.97;;;20.17;30.36
57827;BME280;43656;57.746;11.780;2023-06-10T03:53:56;102481.19;;;20.74;29.91
57827;BME280;43656;57.746;11.780;2023-06-10T03:56:22;102492.06;;;20.80;29.87
57827;BME280;43656;57.746;11.780;2023-06-10T03:58:47;102480.28;;;21.17;29.52
57827;BME280;43656;57.746;11.780;2023-06-10T04:01:13;102452.16;;;21.09;29.25
57827;BME280;43656;57.746;11.780;2023-06-10T04:03:39;102486.06;;;21.27;29.35
57827;BME280;43656;57.746;11.780;2023-06-10T04:06:06;102480.38;;;21.58;29.11
57827;BME280;43656;57.746;11.780;2023-06-10T04:08:32;102488.25;;;21.55;29.13
57827;BME280;43656;57.746;11.780;2023-06-10T04:10:58;102481.25;;;21.59;29.11
57827;BME280;43656;57.746;11.780;2023-06-10T04:13:23;102483.09;;;21.77;28.92
57827;BME280;43656;57.746;11.780;2023-06-10T04:15:49;102486.81;;;21.94;28.79
57827;BME280;43656;57.746;11.780;2023-06-10T04:18:15;102476.72;;;22.07;28.56
57827;BME280;43656;57.746;11.780;2023-06-10T04:20:41;102495.75;;;22.20;28.60
57827;BME280;43656;57.746;11.780;2023-06-10T04:23:06;102494.72;;;22.02;28.89
57827;BME280;43656;57.746;11.780;2023-06-10T04:25:32;102499.13;;;21.25;29.51
57827;BME280;43656;57.746;11.780;2023-06-10T04:27:57;102501.94;;;21.18;30.14
57827;BME280;43656;57.746;11.780;2023-06-10T04:30:23;102453.63;;;20.50;30.53
57827;BME280;43656;57.746;11.780;2023-06-10T04:32:48;102504.00;;;21.41;30.12
57827;BME280;43656;57.746;11.780;2023-06-10T04:35:15;102501.72;;;21.56;29.84
57827;BME280;43656;57.746;11.780;2023-06-10T04:37:41;102504.75;;;22.09;29.37
57827;BME280;43656;57.746;11.780;2023-06-10T04:40:07;102451.91;;;21.90;29.04
57827;BME280;43656;57.746;11.780;2023-06-10T04:42:33;102487.50;;;22.20;29.47
57827;BME280;43656;57.746;11.780;2023-06-10T04:44:59;102507.09;;;22.47;29.09
57827;BME280;43656;57.746;11.780;2023-06-10T04:47:25;102512.22;;;22.01;29.63
57827;BME280;43656;57.746;11.780;2023-06-10T04:49:51;102510.59;;;21.52;30.30
57827;BME280;43656;57.746;11.780;2023-06-10T04:52:17;102510.16;;;21.18;30.80
57827;BME280;43656;57.746;11.780;2023-06-10T04:54:43;102503.19;;;21.41;30.60
57827;BME280;43656;57.746;11.780;2023-06-10T04:57:08;102508.75;;;20.72;31.36
57827;BME280;43656;57.746;11.780;2023-06-10T04:59:35;102516.31;;;20.77;31.43
57827;BME280;43656;57.746;11.780;2023-06-10T05:02:04;102503.97;;;20.68;31.43
57827;BME280;43656;57.746;11.780;2023-06-10T05:04:30;102512.16;;;20.42;32.06
57827;BME280;43656;57.746;11.780;2023-06-10T05:06:56;102516.16;;;19.83;32.71
57827;BME280;43656;57.746;11.780;2023-06-10T05:09:21;102519.63;;;20.29;32.36
57827;BME280;43656;57.746;11.780;2023-06-10T05:11:47;102519.91;;;19.89;32.73
57827;BME280;43656;57.746;11.780;2023-06-10T05:14:12;102514.41;;;20.27;32.11
57827;BME280;43656;57.746;11.780;2023-06-10T05:16:38;102522.56;;;20.59;31.73
57827;BME280;43656;57.746;11.780;2023-06-10T05:19:04;102517.47;;;20.62;32.12
57827;BME280;43656;57.746;11.780;2023-06-10T05:21:29;102516.53;;;20.50;31.96
57827;BME280;43656;57.746;11.780;2023-06-10T05:23:55;102515.94;;;20.41;32.46
57827;BME280;43656;57.746;11.780;2023-06-10T05:26:21;102521.72;;;20.02;32.63
57827;BME280;43656;57.746;11.780;2023-06-10T05:28:47;102513.13;;;19.53;33.37
57827;BME280;43656;57.746;11.780;2023-06-10T05:31:12;102504.44;;;19.76;32.86
57827;BME280;43656;57.746;11.780;2023-06-10T05:33:38;102522.63;;;19.89;32.66
57827;BME280;43656;57.746;11.780;2023-06-10T05:36:04;102515.16;;;19.78;32.80
57827;BME280;43656;57.746;11.780;2023-06-10T05:38:30;102515.38;;;20.08;32.69
57827;BME280;43656;57.746;11.780;2023-06-10T05:40:55;102512.94;;;19.55;33.11
57827;BME280;43656;57.746;11.780;2023-06-10T05:43:22;102508.59;;;19.40;33.26
57827;BME280;43656;57.746;11.780;2023-06-10T05:45:47;102497.59;;;18.95;33.79
57827;BME280;43656;57.746;11.780;2023-06-10T05:48:13;102508.53;;;18.82;34.11
57827;BME280;43656;57.746;11.780;2023-06-10T05:50:39;102510.06;;;19.30;33.56
57827;BME280;43656;57.746;11.780;2023-06-10T05:53:08;102518.16;;;19.05;33.80
57827;BME280;43656;57.746;11.780;2023-06-10T05:55:41;102512.53;;;18.80;33.97
57827;BME280;43656;57.746;11.780;2023-06-10T05:58:07;102515.91;;;18.82;33.72
57827;BME280;43656;57.746;11.780;2023-06-10T06:00:32;102504.50;;;19.05;33.85
57827;BME280;43656;57.746;11.780;2023-06-10T06:02:58;102521.09;;;18.70;34.31
57827;BME280;43656;57.746;11.780;2023-06-10T06:05:24;102518.81;;;18.67;34.22
57827;BME280;43656;57.746;11.780;2023-06-10T06:07:50;102530.13;;;18.90;34.17
57827;BME280;43656;57.746;11.780;2023-06-10T06:10:17;102524.88;;;19.02;34.26
57827;BME280;43656;57.746;11.780;2023-06-10T06:12:42;102518.56;;;19.08;34.31
57827;BME280;43656;57.746;11.780;2023-06-10T06:15:09;102526.81;;;18.82;34.79
57827;BME280;43656;57.746;11.780;2023-06-10T06:17:35;102521.06;;;19.10;34.41
57827;BME280;43656;57.746;11.780;2023-06-10T06:20:01;102523.19;;;19.66;33.83
57827;BME280;43656;57.746;11.780;2023-06-10T06:22:27;102519.31;;;19.87;33.73
57827;BME280;43656;57.746;11.780;2023-06-10T06:24:52;102504.78;;;20.18;33.34
57827;BME280;43656;57.746;11.780;2023-06-10T06:27:17;102524.00;;;20.05;33.48
57827;BME280;43656;57.746;11.780;2023-06-10T06:29:43;102516.69;;;19.99;33.45
57827;BME280;43656;57.746;11.780;2023-06-10T06:32:08;102528.50;;;19.92;33.76
57827;BME280;43656;57.746;11.780;2023-06-10T06:34:34;102521.59;;;19.83;33.56
57827;BME280;43656;57.746;11.780;2023-06-10T06:36:59;102525.97;;;19.98;33.52
57827;BME280;43656;57.746;11.780;2023-06-10T06:39:24;102535.56;;;19.68;33.91
57827;BME280;43656;57.746;11.780;2023-06-10T06:41:50;102533.41;;;20.15;33.49
57827;BME280;43656;57.746;11.780;2023-06-10T06:44:16;102529.03;;;20.64;33.18
57827;BME280;43656;57.746;11.780;2023-06-10T06:46:41;102509.84;;;21.08;32.30
57827;BME280;43656;57.746;11.780;2023-06-10T06:49:07;102525.34;;;21.39;32.26
57827;BME280;43656;57.746;11.780;2023-06-10T06:51:32;102536.22;;;21.02;32.76
57827;BME280;43656;57.746;11.780;2023-06-10T06:53:58;102532.44;;;21.58;32.37
57827;BME280;43656;57.746;11.780;2023-06-10T06:56:24;102527.19;;;21.02;32.48
57827;BME280;43656;57.746;11.780;2023-06-10T06:58:51;102526.91;;;21.47;32.29
57827;BME280;43656;57.746;11.780;2023-06-10T07:01:16;102514.19;;;21.16;32.31
57827;BME280;43656;57.746;11.780;2023-06-10T07:03:42;102520.78;;;20.71;33.18
57827;BME280;43656;57.746;11.780;2023-06-10T07:06:07;102524.00;;;20.86;32.82
57827;BME280;43656;57.746;11.780;2023-06-10T07:08:33;102531.25;;;20.99;32.58
57827;BME280;43656;57.746;11.780;2023-06-10T07:10:58;102515.78;;;20.86;32.94
57827;BME280;43656;57.746;11.780;2023-06-10T07:13:23;102522.56;;;21.21;32.31
57827;BME280;43656;57.746;11.780;2023-06-10T07:15:49;102520.66;;;20.59;33.01
57827;BME280;43656;57.746;11.780;2023-06-10T07:18:15;102531.03;;;20.76;33.00
57827;BME280;43656;57.746;11.780;2023-06-10T07:20:42;102528.75;;;21.34;32.59
57827;BME280;43656;57.746;11.780;2023-06-10T07:23:07;102525.09;;;21.41;32.16
57827;BME280;43656;57.746;11.780;2023-06-10T07:25:33;102531.31;;;21.66;31.83
57827;BME280;43656;57.746;11.780;2023-06-10T07:27:58;102530.06;;;21.25;32.01
57827;BME280;43656;57.746;11.780;2023-06-10T07:30:24;102537.47;;;21.06;32.21
57827;BME280;43656;57.746;11.780;2023-06-10T07:32:51;102531.91;;;21.31;32.34
57827;BME280;43656;57.746;11.780;2023-06-10T07:35:17;102537.94;;;21.40;32.09
57827;BME280;43656;57.746;11.780;2023-06-10T07:37:42;102528.66;;;22.01;31.37
57827;BME280;43656;57.746;11.780;2023-06-10T07:40:08;102523.16;;;21.90;30.80
57827;BME280;43656;57.746;11.780;2023-06-10T07:42:37;102532.47;;;22.19;30.64
57827;BME280;43656;57.746;11.780;2023-06-10T07:45:03;102526.41;;;21.98;30.56
57827;BME280;43656;57.746;11.780;2023-06-10T07:47:30;102525.00;;;22.49;30.10
57827;BME280;43656;57.746;11.780;2023-06-10T07:49:56;102532.72;;;22.41;30.31
57827;BME280;43656;57.746;11.780;2023-06-10T07:52:21;102515.94;;;22.61;29.97
57827;BME280;43656;57.746;11.780;2023-06-10T07:54:47;102500.56;;;22.71;29.67
57827;BME280;43656;57.746;11.780;2023-06-10T07:57:12;102518.44;;;22.50;30.17
57827;BME280;43656;57.746;11.780;2023-06-10T07:59:38;102523.09;;;22.73;29.54
57827;BME280;43656;57.746;11.780;2023-06-10T08:02:04;102516.53;;;23.10;28.90
57827;BME280;43656;57.746;11.780;2023-06-10T08:04:29;102514.75;;;22.68;29.40
57827;BME280;43656;57.746;11.780;2023-06-10T08:06:56;102515.28;;;23.29;28.76
57827;BME280;43656;57.746;11.780;2023-06-10T08:09:22;102515.91;;;23.60;28.29
57827;BME280;43656;57.746;11.780;2023-06-10T08:11:49;102507.38;;;23.44;28.56
57827;BME280;43656;57.746;11.780;2023-06-10T08:14:15;102514.63;;;22.75;28.96
57827;BME280;43656;57.746;11.780;2023-06-10T08:16:41;102501.13;;;22.97;27.93
57827;BME280;43656;57.746;11.780;2023-06-10T08:19:06;102510.41;;;23.19;28.03
57827;BME280;43656;57.746;11.780;2023-06-10T08:21:34;102513.00;;;23.38;27.93
57827;BME280;43656;57.746;11.780;2023-06-10T08:24:00;102524.97;;;23.72;27.60
57827;BME280;43656;57.746;11.780;2023-06-10T08:26:25;102524.81;;;23.79;27.33
57827;BME280;43656;57.746;11.780;2023-06-10T08:28:51;102519.06;;;23.80;27.60
57827;BME280;43656;57.746;11.780;2023-06-10T08:31:16;102528.47;;;23.15;28.49
57827;BME280;43656;57.746;11.780;2023-06-10T08:33:42;102510.91;;;22.81;28.59
57827;BME280;43656;57.746;11.780;2023-06-10T08:36:08;102522.84;;;22.63;28.35
57827;BME280;43656;57.746;11.780;2023-06-10T08:38:33;102522.84;;;23.10;27.69
57827;BME280;43656;57.746;11.780;2023-06-10T08:40:59;102513.91;;;23.15;28.04
57827;BME280;43656;57.746;11.780;2023-06-10T08:43:50;102521.78;;;23.00;27.93
57827;BME280;43656;57.746;11.780;2023-06-10T08:46:20;102516.78;;;23.49;27.54
57827;BME280;43656;57.746;11.780;2023-06-10T08:48:46;102520.78;;;23.29;27.87
57827;BME280;43656;57.746;11.780;2023-06-10T08:51:16;102511.72;;;23.17;27.81
57827;BME280;43656;57.746;11.780;2023-06-10T08:53:50;102508.88;;;23.12;27.69
57827;BME280;43656;57.746;11.780;2023-06-10T08:56:19;102509.25;;;23.15;28.22
57827;BME280;43656;57.746;11.780;2023-06-10T08:58:45;102519.53;;;22.96;28.04
57827;BME280;43656;57.746;11.780;2023-06-10T09:01:12;102504.03;;;23.42;27.61
57827;BME280;43656;57.746;11.780;2023-06-10T09:03:38;102506.31;;;23.34;26.78
57827;BME280;43656;57.746;11.780;2023-06-10T09:06:05;102505.78;;;22.73;27.66
57827;BME280;43656;57.746;11.780;2023-06-10T09:08:32;102507.69;;;22.84;27.37
57827;BME280;43656;57.746;11.780;2023-06-10T09:10:58;102509.47;;;23.14;27.29
57827;BME280;43656;57.746;11.780;2023-06-10T09:13:24;102509.34;;;23.61;27.28
57827;BME280;43656;57.746;11.780;2023-06-10T09:15:49;102479.34;;;23.71;26.93
57827;BME280;43656;57.746;11.780;2023-06-10T09:18:16;102499.41;;;23.72;27.27
57827;BME280;43656;57.746;11.780;2023-06-10T09:20:43;102487.66;;;23.76;27.71
57827;BME280;43656;57.746;11.780;2023-06-10T09:23:09;102459.88;;;23.32;27.37
57827;BME280;43656;57.746;11.780;2023-06-10T09:25:38;102480.94;;;23.15;27.46
57827;BME280;43656;57.746;11.780;2023-06-10T09:28:04;102485.03;;;22.89;27.72
57827;BME280;43656;57.746;11.780;2023-06-10T09:30:33;102490.25;;;22.90;27.49
57827;BME280;43656;57.746;11.780;2023-06-10T09:33:01;102489.31;;;23.49;26.96
57827;BME280;43656;57.746;11.780;2023-06-10T09:35:29;102485.81;;;23.53;26.90
57827;BME280;43656;57.746;11.780;2023-06-10T09:37:56;102486.09;;;23.00;26.73
57827;BME280;43656;57.746;11.780;2023-06-10T09:40:22;102485.00;;;23.12;27.02
57827;BME280;43656;57.746;11.780;2023-06-10T09:42:53;102481.97;;;23.26;27.06
57827;BME280;43656;57.746;11.780;2023-06-10T09:45:20;102483.09;;;23.13;27.31
57827;BME280;43656;57.746;11.780;2023-06-10T09:47:55;102482.28;;;23.41;27.00
57827;BME280;43656;57.746;11.780;2023-06-10T09:50:21;102479.59;;;23.58;27.08
57827;BME280;43656;57.746;11.780;2023-06-10T09:52:47;102455.84;;;23.80;26.63
57827;BME280;43656;57.746;11.780;2023-06-10T09:55:16;102455.09;;;23.68;27.32
57827;BME280;43656;57.746;11.780;2023-06-10T09:57:42;102462.41;;;23.51;26.62
57827;BME280;43656;57.746;11.780;2023-06-10T10:00:13;102472.28;;;23.63;26.49
57827;BME280;43656;57.746;11.780;2023-06-10T10:02:49;102467.38;;;24.28;26.30
57827;BME280;43656;57.746;11.780;2023-06-10T10:05:16;102465.59;;;24.72;25.74
57827;BME280;43656;57.746;11.780;2023-06-10T10:07:43;102457.72;;;25.03;25.62
57827;BME280;43656;57.746;11.780;2023-06-10T10:10:17;102471.25;;;24.44;25.54
57827;BME280;43656;57.746;11.780;2023-06-10T10:12:43;102475.69;;;24.16;25.30
57827;BME280;43656;57.746;11.780;2023-06-10T10:15:11;102471.94;;;24.56;25.20
57827;BME280;43656;57.746;11.780;2023-06-10T10:17:40;102476.47;;;24.45;24.53
57827;BME280;43656;57.746;11.780;2023-06-10T10:20:13;102463.72;;;24.05;24.22
57827;BME280;43656;57.746;11.780;2023-06-10T10:22:41;102463.19;;;23.63;24.70
57827;BME280;43656;57.746;11.780;2023-06-10T10:25:13;102459.84;;;23.89;24.70
57827;BME280;43656;57.746;11.780;2023-06-10T10:28:05;102452.59;;;24.00;24.58
57827;BME280;43656;57.746;11.780;2023-06-10T10:30:37;102459.13;;;24.28;24.83
57827;BME280;43656;57.746;11.780;2023-06-10T10:33:06;102481.38;;;24.26;25.39
57827;BME280;43656;57.746;11.780;2023-06-10T10:35:36;102472.44;;;24.36;24.31
57827;BME280;43656;57.746;11.780;2023-06-10T10:38:02;102464.88;;;24.09;23.89
57827;BME280;43656;57.746;11.780;2023-06-10T10:40:28;102457.22;;;25.06;23.82
57827;BME280;43656;57.746;11.780;2023-06-10T10:42:56;102443.13;;;25.46;23.36
57827;BME280;43656;57.746;11.780;2023-06-10T10:45:22;102460.69;;;25.18;23.44
57827;BME280;43656;57.746;11.780;2023-06-10T10:47:52;102456.75;;;25.36;22.72
57827;BME280;43656;57.746;11.780;2023-06-10T10:50:19;102460.34;;;24.93;23.29
57827;BME280;43656;57.746;11.780;2023-06-10T10:52:55;102450.50;;;25.19;22.98
57827;BME280;43656;57.746;11.780;2023-06-10T10:55:22;102455.72;;;25.69;23.09
57827;BME280;43656;57.746;11.780;2023-06-10T10:58:05;102398.88;;;24.87;22.27
57827;BME280;43656;57.746;11.780;2023-06-10T11:00:42;102450.28;;;24.81;23.55
57827;BME280;43656;57.746;11.780;2023-06-10T11:03:13;102444.16;;;25.18;23.56
57827;BME280;43656;57.746;11.780;2023-06-10T11:05:39;102457.97;;;25.45;22.68
57827;BME280;43656;57.746;11.780;2023-06-10T11:08:07;102446.75;;;25.52;22.43
57827;BME280;43656;57.746;11.780;2023-06-10T11:10:35;102451.53;;;25.35;23.00
57827;BME280;43656;57.746;11.780;2023-06-10T11:13:08;102447.94;;;25.61;22.61
57827;BME280;43656;57.746;11.780;2023-06-10T11:15:47;102448.78;;;25.89;22.92
57827;BME280;43656;57.746;11.780;2023-06-10T11:20:54;102428.97;;;25.16;23.18
57827;BME280;43656;57.746;11.780;2023-06-10T11:33:55;102431.03;;;25.80;22.28
57827;BME280;43656;57.746;11.780;2023-06-10T11:36:22;102417.00;;;25.81;21.81
57827;BME280;43656;57.746;11.780;2023-06-10T11:38:48;102416.41;;;25.52;22.48
57827;BME280;43656;57.746;11.780;2023-06-10T11:41:14;102431.09;;;25.85;21.98
57827;BME280;43656;57.746;11.780;2023-06-10T11:43:46;102429.97;;;25.81;21.54
57827;BME280;43656;57.746;11.780;2023-06-10T11:46:12;102422.41;;;25.71;21.84
57827;BME280;43656;57.746;11.780;2023-06-10T11:48:38;102415.44;;;25.95;22.25
57827;BME280;43656;57.746;11.780;2023-06-10T11:51:07;102416.00;;;26.30;21.89
57827;BME280;43656;57.746;11.780;2023-06-10T11:53:33;102417.06;;;26.23;21.03
57827;BME280;43656;57.746;11.780;2023-06-10T11:55:59;102418.50;;;25.99;21.77
57827;BME280;43656;57.746;11.780;2023-06-10T11:58:25;102416.41;;;26.11;21.73
57827;BME280;43656;57.746;11.780;2023-06-10T12:00:55;102411.72;;;26.12;21.58
57827;BME280;43656;57.746;11.780;2023-06-10T12:03:25;102401.31;;;26.24;21.46
57827;BME280;43656;57.746;11.780;2023-06-10T12:06:04;102400.50;;;26.29;21.74
57827;BME280;43656;57.746;11.780;2023-06-10T12:08:31;102405.84;;;26.40;21.32
57827;BME280;43656;57.746;11.780;2023-06-10T12:10:57;102366.22;;;26.57;21.30
57827;BME280;43656;57.746;11.780;2023-06-10T12:13:25;102391.06;;;26.57;21.34
57827;BME280;43656;57.746;11.780;2023-06-10T12:15:50;102389.16;;;26.67;21.18
57827;BME280;43656;57.746;11.780;2023-06-10T12:18:20;102399.69;;;26.70;20.87
57827;BME280;43656;57.746;11.780;2023-06-10T12:20:46;102366.03;;;26.31;20.89
57827;BME280;43656;57.746;11.780;2023-06-10T12:23:14;102393.06;;;26.24;20.75
57827;BME280;43656;57.746;11.780;2023-06-10T12:25:49;102398.28;;;25.83;20.68
57827;BME280;43656;57.746;11.780;2023-06-10T12:28:16;102393.91;;;25.87;20.72
57827;BME280;43656;57.746;11.780;2023-06-10T12:30:42;102399.66;;;25.86;20.67
57827;BME280;43656;57.746;11.780;2023-06-10T12:33:16;102396.22;;;26.06;21.31
57827;BME280;43656;57.746;11.780;2023-06-10T12:35:47;102389.69;;;26.59;20.79
57827;BME280;43656;57.746;11.780;2023-06-10T12:38:13;102392.00;;;26.35;20.45
57827;BME280;43656;57.746;11.780;2023-06-10T12:40:39;102389.53;;;26.34;20.82
57827;BME280;43656;57.746;11.780;2023-06-10T12:43:09;102389.25;;;26.88;20.30
57827;BME280;43656;57.746;11.780;2023-06-10T12:45:36;102379.06;;;26.93;20.41
57827;BME280;43656;57.746;11.780;2023-06-10T12:48:18;102377.44;;;27.08;20.90
57827;BME280;43656;57.746;11.780;2023-06-10T12:50:46;102382.91;;;26.82;20.95
57827;BME280;43656;57.746;11.780;2023-06-10T12:53:12;102379.16;;;26.51;21.37